sensor_id;sensor_type;location;lat;lon;timestamp;P1;P2;P0
78316;PMS7003;67572;50.930;18.276;2023-02-28T00:00:18;6.00;6.00;6.00
78316;PMS7003;67572;50.930;18.276;2023-02-28T00:03:22;14.00;12.50;6.50
78316;PMS7003;67572;50.930;18.276;2023-02-28T00:06:26;9.00;7.00;6.00
78316;PMS7003;67572;50.930;18.276;2023-02-28T00:09:32;4.00;4.00;3.00
78316;PMS7003;67572;50.930;18.276;2023-02-28T00:12:36;13.00;10.00;6.00
78316;PMS7003;67572;50.930;18.276;2023-02-28T00:15:40;7.00;7.00;4.00
78316;PMS7003;67572;50.930;18.276;2023-02-28T00:18:44;12.00;8.00;6.50
78316;PMS7003;67572;50.930;18.276;2023-02-28T00:21:49;12.50;6.00;4.00
78316;PMS7003;67572;50.930;18.276;2023-02-28T00:24:54;9.50;9.50;6.00
78316;PMS7003;67572;50.930;18.276;2023-02-28T00:27:58;12.50;10.00;7.00
78316;PMS7003;67572;50.930;18.276;2023-02-28T00:31:01;14.00;9.50;6.00
78316;PMS7003;67572;50.930;18.276;2023-02-28T00:34:05;6.50;4.00;3.00
78316;PMS7003;67572;50.930;18.276;2023-02-28T00:37:09;5.50;3.00;3.00
78316;PMS7003;67572;50.930;18.276;2023-02-28T00:40:16;4.00;4.00;3.00
78316;PMS7003;67572;50.930;18.276;2023-02-28T00:43:19;7.00;7.00;6.00
78316;PMS7003;67572;50.930;18.276;2023-02-28T00:46:23;9.50;8.00;6.00
78316;PMS7003;67572;50.930;18.276;2023-02-28T00:49:27;10.50;6.50;4.00
78316;PMS7003;67572;50.930;18.276;2023-02-28T00:52:31;10.00;7.00;6.00
78316;PMS7003;67572;50.930;18.276;2023-02-28T00:55:36;11.00;11.00;9.00
78316;PMS7003;67572;50.930;18.276;2023-02-28T00:58:39;9.50;7.00;6.00
78316;PMS7003;67572;50.930;18.276;2023-02-28T01:01:45;13.25;10.75;6.75
78316;PMS7003;67572;50.930;18.276;2023-02-28T01:04:49;10.00;7.00;4.00
78316;PMS7003;67572;50.930;18.276;2023-02-28T01:07:53;10.00;10.00;8.00
78316;PMS7003;67572;50.930;18.276;2023-02-28T01:11:06;11.50;8.00;7.00
78316;PMS7003;67572;50.930;18.276;2023-02-28T01:14:11;7.00;7.00;6.00
78316;PMS7003;67572;50.930;18.276;2023-02-28T01:17:16;13.00;10.00;7.00
78316;PMS7003;67572;50.930;18.276;2023-02-28T01:20:19;6.50;6.50;6.00
78316;PMS7003;67572;50.930;18.276;2023-02-28T01:23:23;10.00;10.00;6.00
78316;PMS7003;67572;50.930;18.276;2023-02-28T01:26:29;12.00;9.00;6.00
78316;PMS7003;67572;50.930;18.276;2023-02-28T01:29:33;15.00;10.00;6.00
78316;PMS7003;67572;50.930;18.276;2023-02-28T01:32:39;12.20;11.00;7.00
78316;PMS7003;67572;50.930;18.276;2023-02-28T01:35:42;12.00;10.00;7.00
78316;PMS7003;67572;50.930;18.276;2023-02-28T01:38:46;9.00;7.00;6.00
78316;PMS7003;67572;50.930;18.276;2023-02-28T01:41:52;12.00;12.00;7.00
78316;PMS7003;67572;50.930;18.276;2023-02-28T01:45:02;6.00;6.00;3.75
78316;PMS7003;67572;50.930;18.276;2023-02-28T01:48:23;6.00;6.00;4.00
78316;PMS7003;67572;50.930;18.276;2023-02-28T01:51:30;10.00;9.00;7.00
78316;PMS7003;67572;50.930;18.276;2023-02-28T01:54:40;10.00;9.00;7.00
78316;PMS7003;67572;50.930;18.276;2023-02-28T01:57:48;10.00;10.00;8.50
78316;PMS7003;67572;50.930;18.276;2023-02-28T02:00:55;9.00;7.00;5.00
78316;PMS7003;67572;50.930;18.276;2023-02-28T02:04:02;8.00;5.00;3.50
78316;PMS7003;67572;50.930;18.276;2023-02-28T02:07:11;9.00;9.00;6.25
78316;PMS7003;67572;50.930;18.276;2023-02-28T02:10:21;14.20;10.60;8.20
78316;PMS7003;67572;50.930;18.276;2023-02-28T02:13:37;9.00;9.00;7.00
78316;PMS7003;67572;50.930;18.276;2023-02-28T02:16:59;9.50;9.00;6.00
78316;PMS7003;67572;50.930;18.276;2023-02-28T02:24:06;11.00;10.00;7.00
78316;PMS7003;67572;50.930;18.276;2023-02-28T02:35:55;9.00;7.00;6.00
78316;PMS7003;67572;50.930;18.276;2023-02-28T02:39:06;9.50;8.00;5.75
78316;PMS7003;67572;50.930;18.276;2023-02-28T02:42:21;9.75;7.50;6.00
78316;PMS7003;67572;50.930;18.276;2023-02-28T02:45:31;6.00;6.00;3.75
78316;PMS7003;67572;50.930;18.276;2023-02-28T02:48:39;9.00;7.00;4.00
78316;PMS7003;67572;50.930;18.276;2023-02-28T02:51:50;5.00;5.00;3.50
78316;PMS7003;67572;50.930;18.276;2023-02-28T02:54:58;7.00;7.00;5.50
78316;PMS7003;67572;50.930;18.276;2023-02-28T02:58:07;10.25;6.75;4.00
78316;PMS7003;67572;50.930;18.276;2023-02-28T03:01:18;6.00;6.00;4.00
78316;PMS7003;67572;50.930;18.276;2023-02-28T03:04:32;9.25;7.50;3.75
78316;PMS7003;67572;50.930;18.276;2023-02-28T03:07:42;10.00;7.00;6.00
78316;PMS7003;67572;50.930;18.276;2023-02-28T03:10:50;7.00;7.00;5.00
78316;PMS7003;67572;50.930;18.276;2023-02-28T03:14:08;7.50;5.00;4.00
78316;PMS7003;67572;50.930;18.276;2023-02-28T03:17:39;5.00;5.00;4.00
78316;PMS7003;67572;50.930;18.276;2023-02-28T03:20:55;8.00;8.00;5.00
78316;PMS7003;67572;50.930;18.276;2023-02-28T03:24:10;9.00;7.00;4.00
78316;PMS7003;67572;50.930;18.276;2023-02-28T03:27:23;9.50;7.00;6.00
78316;PMS7003;67572;50.930;18.276;2023-02-28T03:30:39;7.00;6.75;4.50
78316;PMS7003;67572;50.930;18.276;2023-02-28T03:33:54;10.25;9.75;5.50
78316;PMS7003;67572;50.930;18.276;2023-02-28T03:37:04;7.50;5.25;4.50
78316;PMS7003;67572;50.930;18.276;2023-02-28T03:40:15;10.00;10.00;6.00
78316;PMS7003;67572;50.930;18.276;2023-02-28T03:43:24;9.50;9.50;4.00
78316;PMS7003;67572;50.930;18.276;2023-02-28T03:46:33;6.50;6.50;6.00
78316;PMS7003;67572;50.930;18.276;2023-02-28T03:49:42;5.50;5.50;3.50
78316;PMS7003;67572;50.930;18.276;2023-02-28T03:52:53;13.00;7.00;4.00
78316;PMS7003;67572;50.930;18.276;2023-02-28T03:56:07;4.00;4.00;4.00
78316;PMS7003;67572;50.930;18.276;2023-02-28T03:59:18;10.50;10.50;6.00
78316;PMS7003;67572;50.930;18.276;2023-02-28T04:02:27;12.00;10.00;5.00
78316;PMS7003;67572;50.930;18.276;2023-02-28T04:05:33;9.00;7.00;5.00
78316;PMS7003;67572;50.930;18.276;2023-02-28T04:08:51;6.00;4.00;3.00
78316;PMS7003;67572;50.930;18.276;2023-02-28T04:11:57;9.50;7.00;6.00
78316;PMS7003;67572;50.930;18.276;2023-02-28T04:15:02;6.00;6.00;3.50
78316;PMS7003;67572;50.930;18.276;2023-02-28T04:18:07;6.00;6.00;4.00
78316;PMS7003;67572;50.930;18.276;2023-02-28T04:21:12;4.50;4.50;3.50
78316;PMS7003;67572;50.930;18.276;2023-02-28T04:24:18;9.50;6.00;4.50
78316;PMS7003;67572;50.930;18.276;2023-02-28T04:27:26;5.00;5.00;4.00
78316;PMS7003;67572;50.930;18.276;2023-02-28T04:30:31;10.00;9.00;4.00
78316;PMS7003;67572;50.930;18.276;2023-02-28T04:33:35;9.50;8.00;6.50
78316;PMS7003;67572;50.930;18.276;2023-02-28T04:36:39;11.00;10.00;4.00
78316;PMS7003;67572;50.930;18.276;2023-02-28T04:39:44;8.50;6.50;4.00
78316;PMS7003;67572;50.930;18.276;2023-02-28T04:42:49;6.50;6.00;4.00
78316;PMS7003;67572;50.930;18.276;2023-02-28T04:45:53;10.00;8.00;5.00
78316;PMS7003;67572;50.930;18.276;2023-02-28T04:48:59;8.50;8.50;5.00
78316;PMS7003;67572;50.930;18.276;2023-02-28T04:52:04;6.00;4.00;3.50
78316;PMS7003;67572;50.930;18.276;2023-02-28T04:55:10;6.25;6.25;3.50
78316;PMS7003;67572;50.930;18.276;2023-02-28T04:58:15;14.00;10.00;7.00
78316;PMS7003;67572;50.930;18.276;2023-02-28T05:01:21;11.00;8.50;6.00
78316;PMS7003;67572;50.930;18.276;2023-02-28T05:04:27;8.50;8.50;4.50
78316;PMS7003;67572;50.930;18.276;2023-02-28T05:07:31;9.00;7.00;6.00
78316;PMS7003;67572;50.930;18.276;2023-02-28T05:10:35;8.00;7.00;6.00
78316;PMS7003;67572;50.930;18.276;2023-02-28T05:13:40;9.00;9.00;7.00
78316;PMS7003;67572;50.930;18.276;2023-02-28T05:16:44;8.50;8.00;6.25
78316;PMS7003;67572;50.930;18.276;2023-02-28T05:19:49;7.50;7.50;4.50
78316;PMS7003;67572;50.930;18.276;2023-02-28T05:22:53;16.00;10.00;4.00
78316;PMS7003;67572;50.930;18.276;2023-02-28T05:25:58;7.00;7.00;5.00
78316;PMS7003;67572;50.930;18.276;2023-02-28T05:29:04;7.00;5.50;5.00
78316;PMS7003;67572;50.930;18.276;2023-02-28T05:32:09;7.50;7.50;4.00
78316;PMS7003;67572;50.930;18.276;2023-02-28T05:35:14;15.50;9.25;6.00
78316;PMS7003;67572;50.930;18.276;2023-02-28T05:38:19;7.00;7.00;6.00
78316;PMS7003;67572;50.930;18.276;2023-02-28T05:41:23;11.00;11.00;6.00
78316;PMS7003;67572;50.930;18.276;2023-02-28T05:44:29;9.00;9.00;7.00
78316;PMS7003;67572;50.930;18.276;2023-02-28T05:47:34;9.50;7.00;3.50
78316;PMS7003;67572;50.930;18.276;2023-02-28T05:50:39;12.00;9.00;6.50
78316;PMS7003;67572;50.930;18.276;2023-02-28T05:53:44;9.00;7.00;7.00
78316;PMS7003;67572;50.930;18.276;2023-02-28T05:56:48;9.00;6.00;3.00
78316;PMS7003;67572;50.930;18.276;2023-02-28T05:59:55;7.00;7.00;4.00
78316;PMS7003;67572;50.930;18.276;2023-02-28T06:03:00;3.50;2.00;0.00
78316;PMS7003;67572;50.930;18.276;2023-02-28T06:06:05;12.50;8.00;5.00
78316;PMS7003;67572;50.930;18.276;2023-02-28T06:09:11;25.00;15.17;10.67
78316;PMS7003;67572;50.930;18.276;2023-02-28T06:12:15;14.50;11.00;9.50
78316;PMS7003;67572;50.930;18.276;2023-02-28T06:15:20;13.00;13.00;9.00
78316;PMS7003;67572;50.930;18.276;2023-02-28T06:18:24;12.00;10.00;8.00
78316;PMS7003;67572;50.930;18.276;2023-02-28T06:21:28;6.75;6.00;5.50
78316;PMS7003;67572;50.930;18.276;2023-02-28T06:24:32;7.00;7.00;6.00
78316;PMS7003;67572;50.930;18.276;2023-02-28T06:27:37;8.50;8.50;6.50
78316;PMS7003;67572;50.930;18.276;2023-02-28T06:30:42;11.00;7.00;6.00
78316;PMS7003;67572;50.930;18.276;2023-02-28T06:33:48;8.50;8.50;4.75
78316;PMS7003;67572;50.930;18.276;2023-02-28T06:36:53;9.25;7.25;5.50
78316;PMS7003;67572;50.930;18.276;2023-02-28T06:39:56;7.00;7.00;6.00
78316;PMS7003;67572;50.930;18.276;2023-02-28T06:43:01;8.50;8.50;5.50
78316;PMS7003;67572;50.930;18.276;2023-02-28T06:46:07;14.00;12.00;6.50
78316;PMS7003;67572;50.930;18.276;2023-02-28T06:49:17;7.00;7.00;4.00
78316;PMS7003;67572;50.930;18.276;2023-02-28T06:52:20;13.00;12.00;9.00
78316;PMS7003;67572;50.930;18.276;2023-02-28T06:55:25;9.25;7.50;6.00
78316;PMS7003;67572;50.930;18.276;2023-02-28T06:58:31;12.00;9.00;6.00
78316;PMS7003;67572;50.930;18.276;2023-02-28T07:01:36;16.00;12.50;9.00
78316;PMS7003;67572;50.930;18.276;2023-02-28T07:04:40;12.50;10.00;7.00
78316;PMS7003;67572;50.930;18.276;2023-02-28T07:07:46;9.50;9.00;2.00
78316;PMS7003;67572;50.930;18.276;2023-02-28T07:10:51;13.00;12.00;7.00
78316;PMS7003;67572;50.930;18.276;2023-02-28T07:13:57;9.50;8.00;6.00
78316;PMS7003;67572;50.930;18.276;2023-02-28T07:17:02;17.00;12.00;7.00
78316;PMS7003;67572;50.930;18.276;2023-02-28T07:20:06;10.00;10.00;7.00
78316;PMS7003;67572;50.930;18.276;2023-02-28T07:23:11;10.00;9.00;6.00
78316;PMS7003;67572;50.930;18.276;2023-02-28T07:26:16;12.00;12.00;9.00
78316;PMS7003;67572;50.930;18.276;2023-02-28T07:29:21;15.00;11.00;9.50
78316;PMS7003;67572;50.930;18.276;2023-02-28T07:32:26;12.00;9.00;6.00
78316;PMS7003;67572;50.930;18.276;2023-02-28T07:35:30;12.00;10.00;7.00
78316;PMS7003;67572;50.930;18.276;2023-02-28T07:38:35;4.50;4.50;1.50
78316;PMS7003;67572;50.930;18.276;2023-02-28T07:41:41;5.00;5.00;4.00
78316;PMS7003;67572;50.930;18.276;2023-02-28T07:44:46;4.00;3.00;0.00
78316;PMS7003;67572;50.930;18.276;2023-02-28T07:47:52;16.00;10.00;7.00
78316;PMS7003;67572;50.930;18.276;2023-02-28T07:50:57;5.75;4.00;4.00
78316;PMS7003;67572;50.930;18.276;2023-02-28T07:54:02;4.00;4.00;1.00
78316;PMS7003;67572;50.930;18.276;2023-02-28T07:57:06;9.00;9.00;6.50
78316;PMS7003;67572;50.930;18.276;2023-02-28T08:00:11;10.75;7.50;5.50
78316;PMS7003;67572;50.930;18.276;2023-02-28T08:03:17;5.00;5.00;3.00
78316;PMS7003;67572;50.930;18.276;2023-02-28T08:06:22;5.00;3.00;1.00
78316;PMS7003;67572;50.930;18.276;2023-02-28T08:09:27;9.00;6.00;4.00
78316;PMS7003;67572;50.930;18.276;2023-02-28T08:12:32;4.00;3.75;3.00
78316;PMS7003;67572;50.930;18.276;2023-02-28T08:15:37;5.00;5.00;3.75
78316;PMS7003;67572;50.930;18.276;2023-02-28T08:18:42;0.00;0.00;0.00
78316;PMS7003;67572;50.930;18.276;2023-02-28T08:21:47;8.50;7.00;4.00
78316;PMS7003;67572;50.930;18.276;2023-02-28T08:24:51;7.00;6.00;3.75
78316;PMS7003;67572;50.930;18.276;2023-02-28T08:27:55;7.50;6.50;3.50
78316;PMS7003;67572;50.930;18.276;2023-02-28T08:30:59;6.75;3.25;3.00
78316;PMS7003;67572;50.930;18.276;2023-02-28T08:34:06;8.00;7.00;6.00
78316;PMS7003;67572;50.930;18.276;2023-02-28T08:37:10;3.50;3.50;3.00
78316;PMS7003;67572;50.930;18.276;2023-02-28T08:40:14;6.50;6.50;6.00
78316;PMS7003;67572;50.930;18.276;2023-02-28T08:43:20;10.00;5.00;4.00
78316;PMS7003;67572;50.930;18.276;2023-02-28T08:46:24;4.50;4.50;4.00
78316;PMS7003;67572;50.930;18.276;2023-02-28T08:49:29;5.00;5.00;3.50
78316;PMS7003;67572;50.930;18.276;2023-02-28T08:52:33;7.00;7.00;6.00
78316;PMS7003;67572;50.930;18.276;2023-02-28T08:55:38;12.00;9.00;4.00
78316;PMS7003;67572;50.930;18.276;2023-02-28T08:58:42;11.00;9.00;6.00
78316;PMS7003;67572;50.930;18.276;2023-02-28T09:01:47;9.50;9.50;3.00
78316;PMS7003;67572;50.930;18.276;2023-02-28T09:04:52;10.00;6.00;4.00
78316;PMS7003;67572;50.930;18.276;2023-02-28T09:07:57;10.00;9.00;4.00
78316;PMS7003;67572;50.930;18.276;2023-02-28T09:11:01;9.00;6.00;1.00
78316;PMS7003;67572;50.930;18.276;2023-02-28T09:14:05;12.00;6.00;3.00
78316;PMS7003;67572;50.930;18.276;2023-02-28T09:17:08;2.00;1.50;0.50
78316;PMS7003;67572;50.930;18.276;2023-02-28T09:20:14;6.00;6.00;4.00
78316;PMS7003;67572;50.930;18.276;2023-02-28T09:23:18;10.00;10.00;5.00
78316;PMS7003;67572;50.930;18.276;2023-02-28T09:26:22;7.00;7.00;6.00
78316;PMS7003;67572;50.930;18.276;2023-02-28T09:29:27;6.00;6.00;6.00
78316;PMS7003;67572;50.930;18.276;2023-02-28T09:32:31;7.00;7.00;4.00
78316;PMS7003;67572;50.930;18.276;2023-02-28T09:35:37;8.00;8.00;6.00
78316;PMS7003;67572;50.930;18.276;2023-02-28T09:38:41;9.50;7.00;5.00
78316;PMS7003;67572;50.930;18.276;2023-02-28T09:41:45;6.50;6.50;4.00
78316;PMS7003;67572;50.930;18.276;2023-02-28T09:44:56;14.43;11.57;7.43
78316;PMS7003;67572;50.930;18.276;2023-02-28T09:48:04;9.00;6.50;6.00
78316;PMS7003;67572;50.930;18.276;2023-02-28T09:51:21;13.00;12.00;6.00
78316;PMS7003;67572;50.930;18.276;2023-02-28T09:54:33;9.00;7.00;6.00
78316;PMS7003;67572;50.930;18.276;2023-02-28T09:57:37;10.00;7.00;6.00
78316;PMS7003;67572;50.930;18.276;2023-02-28T10:00:46;10.80;10.00;8.60
78316;PMS7003;67572;50.930;18.276;2023-02-28T10:04:00;8.00;7.00;6.50
78316;PMS7003;67572;50.930;18.276;2023-02-28T10:07:19;16.00;12.50;9.00
78316;PMS7003;67572;50.930;18.276;2023-02-28T10:10:32;9.00;9.00;7.00
78316;PMS7003;67572;50.930;18.276;2023-02-28T10:13:45;10.00;6.50;6.00
78316;PMS7003;67572;50.930;18.276;2023-02-28T10:16:58;25.00;21.00;15.33
78316;PMS7003;67572;50.930;18.276;2023-02-28T10:20:09;34.00;25.67;16.67
78316;PMS7003;67572;50.930;18.276;2023-02-28T10:23:19;6.00;6.00;5.00
78316;PMS7003;67572;50.930;18.276;2023-02-28T10:26:25;12.00;10.00;8.00
78316;PMS7003;67572;50.930;18.276;2023-02-28T10:29:32;20.00;18.50;12.00
78316;PMS7003;67572;50.930;18.276;2023-02-28T10:32:37;20.00;18.50;11.50
78316;PMS7003;67572;50.930;18.276;2023-02-28T10:35:44;8.00;8.00;6.00
78316;PMS7003;67572;50.930;18.276;2023-02-28T10:38:50;12.00;9.00;6.00
78316;PMS7003;67572;50.930;18.276;2023-02-28T10:41:54;12.50;10.00;7.00
78316;PMS7003;67572;50.930;18.276;2023-02-28T10:45:10;9.00;6.50;3.00
78316;PMS7003;67572;50.930;18.276;2023-02-28T10:48:26;15.00;13.00;9.00
78316;PMS7003;67572;50.930;18.276;2023-02-28T10:51:34;19.67;15.00;10.00
78316;PMS7003;67572;50.930;18.276;2023-02-28T10:54:41;10.00;10.00;7.00
78316;PMS7003;67572;50.930;18.276;2023-02-28T10:57:46;8.80;8.20;6.40
78316;PMS7003;67572;50.930;18.276;2023-02-28T11:00:50;12.00;12.00;7.00
78316;PMS7003;67572;50.930;18.276;2023-02-28T11:03:56;9.50;9.50;8.00
78316;PMS7003;67572;50.930;18.276;2023-02-28T11:07:02;15.60;14.20;10.00
78316;PMS7003;67572;50.930;18.276;2023-02-28T11:10:16;9.50;8.00;4.00
78316;PMS7003;67572;50.930;18.276;2023-02-28T11:13:26;8.60;4.40;4.00
78316;PMS7003;67572;50.930;18.276;2023-02-28T11:16:33;11.50;11.00;9.50
78316;PMS7003;67572;50.930;18.276;2023-02-28T11:19:41;21.33;18.00;10.67
78316;PMS7003;67572;50.930;18.276;2023-02-28T11:22:49;16.00;15.00;10.00
78316;PMS7003;67572;50.930;18.276;2023-02-28T11:25:58;13.00;10.00;6.00
78316;PMS7003;67572;50.930;18.276;2023-02-28T11:29:11;15.83;13.33;10.00
78316;PMS7003;67572;50.930;18.276;2023-02-28T11:32:23;18.00;12.83;9.67
78316;PMS7003;67572;50.930;18.276;2023-02-28T11:35:32;7.00;7.00;6.00
78316;PMS7003;67572;50.930;18.276;2023-02-28T11:38:41;13.80;12.80;8.20
78316;PMS7003;67572;50.930;18.276;2023-02-28T11:41:52;8.00;8.00;4.00
78316;PMS7003;67572;50.930;18.276;2023-02-28T11:45:12;10.80;10.80;7.80
78316;PMS7003;67572;50.930;18.276;2023-02-28T11:48:27;20.33;18.67;12.67
78316;PMS7003;67572;50.930;18.276;2023-02-28T11:51:46;21.00;17.67;11.67
78316;PMS7003;67572;50.930;18.276;2023-02-28T11:54:59;42.00;40.00;25.00
78316;PMS7003;67572;50.930;18.276;2023-02-28T11:58:25;44.00;41.50;27.50
78316;PMS7003;67572;50.930;18.276;2023-02-28T12:01:56;11.50;8.50;4.00
78316;PMS7003;67572;50.930;18.276;2023-02-28T12:05:10;16.00;13.00;10.00
78316;PMS7003;67572;50.930;18.276;2023-02-28T12:08:32;19.67;16.33;10.33
78316;PMS7003;67572;50.930;18.276;2023-02-28T12:11:51;16.33;15.17;10.00
78316;PMS7003;67572;50.930;18.276;2023-02-28T12:15:04;16.00;13.00;11.33
78316;PMS7003;67572;50.930;18.276;2023-02-28T12:18:26;10.60;9.20;4.40
78316;PMS7003;67572;50.930;18.276;2023-02-28T12:21:56;18.33;17.83;10.00
78316;PMS7003;67572;50.930;18.276;2023-02-28T12:25:21;16.67;13.67;9.67
78316;PMS7003;67572;50.930;18.276;2023-02-28T12:28:37;21.67;21.33;16.33
78316;PMS7003;67572;50.930;18.276;2023-02-28T12:31:48;4.00;4.00;3.00
78316;PMS7003;67572;50.930;18.276;2023-02-28T12:34:57;12.33;12.00;8.33
78316;PMS7003;67572;50.930;18.276;2023-02-28T12:38:10;17.67;12.17;10.00
78316;PMS7003;67572;50.930;18.276;2023-02-28T12:41:22;16.00;13.67;9.00
78316;PMS7003;67572;50.930;18.276;2023-02-28T12:44:48;16.50;13.00;9.50
78316;PMS7003;67572;50.930;18.276;2023-02-28T12:48:00;45.25;37.50;27.50
78316;PMS7003;67572;50.930;18.276;2023-02-28T12:51:09;16.40;14.00;9.20
78316;PMS7003;67572;50.930;18.276;2023-02-28T12:54:19;18.00;15.50;9.67
78316;PMS7003;67572;50.930;18.276;2023-02-28T12:57:32;18.67;13.67;9.00
78316;PMS7003;67572;50.930;18.276;2023-02-28T13:00:46;12.00;12.00;9.33
78316;PMS7003;67572;50.930;18.276;2023-02-28T13:11:47;12.67;12.67;9.33
78316;PMS7003;67572;50.930;18.276;2023-02-28T13:15:01;17.00;14.67;9.67
78316;PMS7003;67572;50.930;18.276;2023-02-28T13:18:30;22.67;22.00;17.33
78316;PMS7003;67572;50.930;18.276;2023-02-28T13:21:43;19.00;16.00;12.50
78316;PMS7003;67572;50.930;18.276;2023-02-28T13:24:52;21.67;18.33;12.33
78316;PMS7003;67572;50.930;18.276;2023-02-28T13:28:02;32.67;31.00;19.00
78316;PMS7003;67572;50.930;18.276;2023-02-28T13:31:13;24.00;24.00;21.00
78316;PMS7003;67572;50.930;18.276;2023-02-28T13:34:19;24.50;19.00;13.00
78316;PMS7003;67572;50.930;18.276;2023-02-28T13:37:36;28.50;23.00;15.00
78316;PMS7003;67572;50.930;18.276;2023-02-28T13:40:48;17.67;15.00;13.00
78316;PMS7003;67572;50.930;18.276;2023-02-28T13:44:00;15.33;15.33;11.33
78316;PMS7003;67572;50.930;18.276;2023-02-28T13:47:19;15.17;14.67;10.67
78316;PMS7003;67572;50.930;18.276;2023-02-28T13:50:33;32.00;28.33;18.67
78316;PMS7003;67572;50.930;18.276;2023-02-28T13:53:56;24.33;16.83;12.17
78316;PMS7003;67572;50.930;18.276;2023-02-28T13:57:12;26.00;23.50;17.00
78316;PMS7003;67572;50.930;18.276;2023-02-28T14:00:34;18.33;18.00;10.67
78316;PMS7003;67572;50.930;18.276;2023-02-28T14:07:37;23.00;21.00;13.00
78316;PMS7003;67572;50.930;18.276;2023-02-28T14:11:02;23.50;19.83;12.50
78316;PMS7003;67572;50.930;18.276;2023-02-28T14:14:08;28.00;21.00;13.00
78316;PMS7003;67572;50.930;18.276;2023-02-28T14:17:34;31.50;31.50;21.00
78316;PMS7003;67572;50.930;18.276;2023-02-28T14:20:42;36.33;33.00;22.67
78316;PMS7003;67572;50.930;18.276;2023-02-28T14:23:56;19.00;13.00;8.33
78316;PMS7003;67572;50.930;18.276;2023-02-28T14:27:31;27.00;24.67;17.33
78316;PMS7003;67572;50.930;18.276;2023-02-28T14:30:47;37.33;31.67;21.00
78316;PMS7003;67572;50.930;18.276;2023-02-28T14:34:13;20.50;19.50;13.00
78316;PMS7003;67572;50.930;18.276;2023-02-28T14:37:30;24.33;17.33;12.00
78316;PMS7003;67572;50.930;18.276;2023-02-28T14:40:38;25.33;22.33;16.33
78316;PMS7003;67572;50.930;18.276;2023-02-28T14:43:50;30.50;25.50;16.25
78316;PMS7003;67572;50.930;18.276;2023-02-28T14:46:57;27.50;24.50;17.00
78316;PMS7003;67572;50.930;18.276;2023-02-28T14:50:17;25.50;22.00;15.00
78316;PMS7003;67572;50.930;18.276;2023-02-28T14:53:25;18.33;16.67;12.00
78316;PMS7003;67572;50.930;18.276;2023-02-28T14:56:34;45.00;38.00;25.00
78316;PMS7003;67572;50.930;18.276;2023-02-28T14:59:41;31.50;25.00;15.00
78316;PMS7003;67572;50.930;18.276;2023-02-28T15:02:47;28.00;28.00;20.33
78316;PMS7003;67572;50.930;18.276;2023-02-28T15:05:53;40.00;36.67;22.00
78316;PMS7003;67572;50.930;18.276;2023-02-28T15:12:22;29.33;24.67;18.00
78316;PMS7003;67572;50.930;18.276;2023-02-28T15:15:33;15.00;15.00;7.00
78316;PMS7003;67572;50.930;18.276;2023-02-28T15:19:02;21.00;18.50;11.00
78316;PMS7003;67572;50.930;18.276;2023-02-28T15:22:12;24.00;21.00;15.00
78316;PMS7003;67572;50.930;18.276;2023-02-28T15:25:21;31.33;29.33;18.00
78316;PMS7003;67572;50.930;18.276;2023-02-28T15:28:27;20.67;20.67;11.67
78316;PMS7003;67572;50.930;18.276;2023-02-28T15:31:34;25.00;24.67;14.33
78316;PMS7003;67572;50.930;18.276;2023-02-28T15:38:25;24.00;22.00;14.33
78316;PMS7003;67572;50.930;18.276;2023-02-28T15:41:35;35.00;28.00;15.50
78316;PMS7003;67572;50.930;18.276;2023-02-28T15:44:42;31.50;28.50;21.00
78316;PMS7003;67572;50.930;18.276;2023-02-28T15:47:49;64.00;54.00;33.00
78316;PMS7003;67572;50.930;18.276;2023-02-28T15:51:01;43.67;39.33;27.33
78316;PMS7003;67572;50.930;18.276;2023-02-28T15:54:12;59.50;47.25;29.50
78316;PMS7003;67572;50.930;18.276;2023-02-28T15:57:25;68.00;55.67;34.67
78316;PMS7003;67572;50.930;18.276;2023-02-28T16:00:33;40.33;38.67;27.00
78316;PMS7003;67572;50.930;18.276;2023-02-28T16:03:43;34.00;32.33;25.00
78316;PMS7003;67572;50.930;18.276;2023-02-28T16:07:00;67.00;52.00;30.00
78316;PMS7003;67572;50.930;18.276;2023-02-28T16:10:06;67.67;50.67;28.67
78316;PMS7003;67572;50.930;18.276;2023-02-28T16:13:13;69.67;58.33;39.33
78316;PMS7003;67572;50.930;18.276;2023-02-28T16:16:22;73.67;59.33;39.00
78316;PMS7003;67572;50.930;18.276;2023-02-28T16:19:33;85.67;69.33;43.00
78316;PMS7003;67572;50.930;18.276;2023-02-28T16:22:40;110.33;82.67;53.67
78316;PMS7003;67572;50.930;18.276;2023-02-28T16:25:47;126.00;112.75;65.00
78316;PMS7003;67572;50.930;18.276;2023-02-28T16:28:54;123.00;100.00;56.75
78316;PMS7003;67572;50.930;18.276;2023-02-28T16:32:01;109.00;82.67;51.00
78316;PMS7003;67572;50.930;18.276;2023-02-28T16:35:13;95.67;72.67;46.67
78316;PMS7003;67572;50.930;18.276;2023-02-28T16:38:30;79.67;63.67;40.67
78316;PMS7003;67572;50.930;18.276;2023-02-28T16:41:42;71.33;56.33;36.00
78316;PMS7003;67572;50.930;18.276;2023-02-28T16:44:55;54.33;48.33;33.00
78316;PMS7003;67572;50.930;18.276;2023-02-28T16:48:07;47.33;43.00;30.67
78316;PMS7003;67572;50.930;18.276;2023-02-28T16:53:08;43.50;34.00;24.00
78316;PMS7003;67572;50.930;18.276;2023-02-28T16:56:21;30.33;28.67;21.00
78316;PMS7003;67572;50.930;18.276;2023-02-28T17:19:17;23.00;23.00;17.67
78316;PMS7003;67572;50.930;18.276;2023-02-28T17:22:23;30.33;29.33;18.67
78316;PMS7003;67572;50.930;18.276;2023-02-28T17:25:28;23.00;21.00;13.00
78316;PMS7003;67572;50.930;18.276;2023-02-28T17:28:33;28.00;21.67;16.00
78316;PMS7003;67572;50.930;18.276;2023-02-28T17:31:38;27.00;21.33;19.33
78316;PMS7003;67572;50.930;18.276;2023-02-28T17:34:45;35.67;33.33;22.33
78316;PMS7003;67572;50.930;18.276;2023-02-28T17:37:49;20.00;20.00;18.00
78316;PMS7003;67572;50.930;18.276;2023-02-28T17:40:53;27.50;24.50;15.00
78316;PMS7003;67572;50.930;18.276;2023-02-28T17:44:02;32.33;25.67;16.00
78316;PMS7003;67572;50.930;18.276;2023-02-28T17:47:09;17.33;16.33;5.83
78316;PMS7003;67572;50.930;18.276;2023-02-28T17:50:21;27.00;22.67;14.33
78316;PMS7003;67572;50.930;18.276;2023-02-28T17:53:31;16.00;12.33;10.00
78316;PMS7003;67572;50.930;18.276;2023-02-28T17:56:39;18.33;18.33;13.00
78316;PMS7003;67572;50.930;18.276;2023-02-28T17:59:46;22.33;16.67;10.00
78316;PMS7003;67572;50.930;18.276;2023-02-28T18:02:51;18.67;17.33;9.00
78316;PMS7003;67572;50.930;18.276;2023-02-28T18:05:59;16.00;16.00;10.00
78316;PMS7003;67572;50.930;18.276;2023-02-28T18:09:05;18.67;18.00;10.67
78316;PMS7003;67572;50.930;18.276;2023-02-28T18:12:10;18.67;18.00;13.67
78316;PMS7003;67572;50.930;18.276;2023-02-28T18:15:15;24.67;19.00;12.00
78316;PMS7003;67572;50.930;18.276;2023-02-28T18:18:24;18.00;18.00;12.33
78316;PMS7003;67572;50.930;18.276;2023-02-28T18:21:30;26.00;23.33;15.00
78316;PMS7003;67572;50.930;18.276;2023-02-28T18:24:36;25.00;19.00;15.00
78316;PMS7003;67572;50.930;18.276;2023-02-28T18:27:41;23.33;19.67;9.00
78316;PMS7003;67572;50.930;18.276;2023-02-28T18:30:56;29.67;28.00;16.00
78316;PMS7003;67572;50.930;18.276;2023-02-28T18:34:02;23.00;21.00;15.00
78316;PMS7003;67572;50.930;18.276;2023-02-28T18:37:07;24.50;24.50;15.00